createdAt,value
2018-09-09T00:01:24.871Z,2.80
2018-09-09T00:03:53.272Z,2.90
2018-09-09T00:06:21.590Z,3.00
2018-09-09T00:08:49.903Z,3.63
2018-09-09T00:11:18.456Z,3.23
2018-09-09T00:13:46.780Z,3.30
2018-09-09T00:16:15.345Z,2.43
2018-09-09T00:18:44.018Z,3.90
2018-09-09T00:21:12.558Z,3.30
2018-09-09T00:23:40.900Z,2.80
2018-09-09T00:26:09.641Z,3.20
2018-09-09T00:28:38.268Z,2.63
2018-09-09T00:31:06.606Z,2.67
2018-09-09T00:33:35.177Z,2.57
2018-09-09T00:36:03.737Z,3.30
2018-09-09T00:38:32.067Z,2.50
2018-09-09T00:41:00.683Z,2.90
2018-09-09T00:43:29.276Z,3.87
2018-09-09T00:45:57.617Z,3.00
2018-09-09T00:48:26.061Z,2.93
2018-09-09T00:50:59.909Z,2.70
2018-09-09T00:54:34.681Z,3.30
2018-09-09T00:57:03.189Z,2.80
2018-09-09T00:59:31.664Z,2.80
2018-09-09T01:01:59.997Z,2.73
2018-09-09T01:04:28.633Z,3.30
2018-09-09T01:06:57.121Z,2.30
2018-09-09T01:09:30.842Z,2.80
2018-09-09T01:11:59.401Z,3.50
2018-09-09T01:14:28.540Z,2.77
2018-09-09T01:16:56.965Z,3.00
2018-09-09T01:19:25.428Z,3.00
2018-09-09T01:21:54.008Z,2.30
2018-09-09T01:24:22.557Z,2.83
2018-09-09T01:26:51.140Z,2.73
2018-09-09T01:29:19.709Z,3.20
2018-09-09T01:31:48.121Z,3.47
2018-09-09T01:34:16.456Z,2.90
2018-09-09T01:36:45.616Z,2.80
2018-09-09T01:39:14.051Z,3.33
2018-09-09T01:41:42.385Z,2.60
2018-09-09T01:44:10.838Z,2.50
2018-09-09T01:46:39.324Z,2.87
2018-09-09T01:49:07.661Z,3.13
2018-09-09T01:51:36.361Z,2.90
2018-09-09T01:54:04.661Z,3.00
2018-09-09T01:56:32.979Z,2.93
2018-09-09T01:59:01.322Z,2.60
2018-09-09T02:01:30.213Z,3.30
2018-09-09T02:03:58.517Z,3.10
2018-09-09T02:06:26.867Z,3.20
2018-09-09T02:08:55.168Z,3.03
2018-09-09T02:11:23.514Z,4.90
2018-09-09T02:13:51.824Z,3.20
2018-09-09T02:16:20.129Z,3.30
2018-09-09T02:18:48.468Z,2.53
2018-09-09T02:21:16.812Z,2.60
2018-09-09T02:23:45.149Z,2.37
2018-09-09T02:26:13.500Z,2.70
2018-09-09T02:28:41.833Z,2.93
2018-09-09T02:31:10.763Z,3.37
2018-09-09T02:33:39.085Z,2.80
2018-09-09T02:36:07.672Z,2.83
2018-09-09T02:38:36.040Z,2.63
2018-09-09T02:41:04.365Z,3.47
2018-09-09T02:43:32.692Z,2.97
2018-09-09T02:46:01.060Z,2.80
2018-09-09T02:48:29.400Z,2.77
2018-09-09T02:50:58.348Z,2.73
2018-09-09T02:53:26.656Z,2.77
2018-09-09T02:55:55.179Z,3.13
2018-09-09T02:58:24.276Z,3.03
2018-09-09T03:00:52.618Z,3.00
2018-09-09T03:03:20.933Z,3.33
2018-09-09T03:05:49.292Z,4.37
2018-09-09T03:08:17.593Z,2.70
2018-09-09T03:10:45.965Z,3.50
2018-09-09T03:13:14.278Z,3.20
2018-09-09T03:15:42.628Z,3.60
2018-09-09T03:18:10.943Z,4.10
2018-09-09T03:20:39.263Z,3.43
2018-09-09T03:23:07.559Z,3.67
2018-09-09T03:25:36.554Z,3.07
2018-09-09T03:28:04.867Z,3.30
2018-09-09T03:30:33.195Z,3.20
2018-09-09T03:33:01.516Z,3.07
2018-09-09T03:35:29.816Z,3.23
2018-09-09T03:37:58.193Z,3.40
2018-09-09T03:40:26.545Z,3.17
2018-09-09T03:42:54.921Z,3.70
2018-09-09T03:45:23.236Z,3.23
2018-09-09T03:47:51.565Z,3.53
2018-09-09T03:50:19.880Z,3.50
2018-09-09T03:52:48.834Z,4.00
2018-09-09T03:55:17.185Z,3.30
2018-09-09T03:57:45.490Z,3.40
2018-09-09T04:00:13.804Z,3.83
2018-09-09T04:02:42.124Z,3.60
2018-09-09T04:05:10.439Z,3.13
2018-09-09T04:07:38.865Z,4.33
2018-09-09T04:10:07.387Z,3.70
2018-09-09T04:12:35.690Z,3.30
2018-09-09T04:15:04.094Z,3.87
2018-09-09T04:17:32.406Z,3.70
2018-09-09T04:20:01.278Z,3.60
2018-09-09T04:22:29.620Z,3.63
2018-09-09T04:24:57.934Z,3.10
2018-09-09T04:27:26.294Z,3.20
2018-09-09T04:29:54.653Z,3.83
2018-09-09T04:32:22.963Z,4.50
2018-09-09T04:34:51.266Z,4.00
2018-09-09T04:37:19.596Z,4.80
2018-09-09T04:39:47.905Z,4.07
2018-09-09T04:42:16.261Z,3.67
2018-09-09T04:44:44.564Z,3.63
2018-09-09T04:47:12.874Z,3.10
2018-09-09T04:49:56.317Z,3.40
2018-09-09T04:52:24.885Z,3.90
2018-09-09T04:54:53.217Z,3.37
2018-09-09T04:57:21.536Z,3.80
2018-09-09T04:59:49.877Z,3.60
2018-09-09T05:02:18.167Z,3.37
2018-09-09T05:04:46.476Z,3.87
2018-09-09T05:07:14.800Z,4.03
2018-09-09T05:09:43.125Z,4.80
2018-09-09T05:12:11.889Z,3.17
2018-09-09T05:14:40.256Z,3.00
2018-09-09T05:17:08.565Z,3.70
2018-09-09T05:19:36.881Z,2.90
2018-09-09T05:22:05.331Z,2.93
2018-09-09T05:24:33.580Z,2.77
2018-09-09T05:27:01.941Z,3.27
2018-09-09T05:29:30.617Z,3.30
2018-09-09T05:31:58.939Z,2.43
2018-09-09T05:34:27.371Z,2.77
2018-09-09T05:36:56.127Z,2.60
2018-09-09T05:39:24.433Z,2.47
2018-09-09T05:41:52.768Z,2.93
2018-09-09T05:44:21.089Z,2.50
2018-09-09T05:46:49.425Z,2.57
2018-09-09T05:49:17.765Z,2.20
2018-09-09T05:51:46.071Z,2.40
2018-09-09T05:54:14.418Z,2.60
2018-09-09T05:56:48.577Z,3.00
2018-09-09T05:59:17.120Z,2.50
2018-09-09T06:01:48.745Z,2.00
2018-09-09T06:04:17.068Z,3.33
2018-09-09T06:06:46.980Z,2.90
2018-09-09T06:09:15.855Z,2.60
2018-09-09T06:11:44.831Z,2.73
2018-09-09T06:14:14.314Z,2.00
2018-09-09T06:16:43.745Z,2.17
2018-09-09T06:19:12.101Z,3.27
2018-09-09T06:21:40.477Z,2.30
2018-09-09T06:24:09.484Z,2.50
2018-09-09T06:26:37.789Z,2.90
2018-09-09T06:29:06.459Z,2.40
2018-09-09T06:31:42.195Z,2.80
2018-09-09T06:34:10.553Z,2.17
2018-09-09T06:36:38.965Z,2.00
2018-09-09T06:39:09.037Z,3.03
2018-09-09T06:41:38.982Z,2.07
2018-09-09T06:44:07.837Z,2.30
2018-09-09T06:46:36.233Z,2.83
2018-09-09T06:49:04.605Z,3.17
2018-09-09T06:51:34.098Z,2.37
2018-09-09T06:54:02.533Z,2.70
2018-09-09T06:56:31.288Z,3.43
2018-09-09T06:59:00.709Z,2.40
2018-09-09T07:01:29.197Z,2.43
2018-09-09T07:03:58.093Z,2.30
2018-09-09T07:06:27.336Z,2.53
2018-09-09T07:08:55.800Z,3.50
2018-09-09T07:11:34.251Z,2.50
2018-09-09T07:14:03.018Z,2.60
2018-09-09T07:16:31.377Z,1.90
2018-09-09T07:19:00.231Z,2.40
2018-09-09T07:21:29.964Z,2.40
2018-09-09T07:23:58.417Z,2.57
2018-09-09T07:26:27.676Z,2.20
2018-09-09T07:28:57.139Z,2.07
2018-09-09T07:31:25.497Z,2.50
2018-09-09T07:33:54.725Z,2.60
2018-09-09T07:36:24.357Z,1.97
2018-09-09T07:38:52.905Z,1.83
2018-09-09T07:41:22.943Z,1.70
2018-09-09T07:43:51.320Z,1.70
2018-09-09T07:46:19.897Z,2.13
2018-09-09T07:48:49.045Z,2.27
2018-09-09T07:51:19.331Z,2.00
2018-09-09T07:53:47.965Z,1.93
2018-09-09T07:56:17.434Z,2.00
2018-09-09T07:58:50.038Z,2.37
2018-09-09T08:01:18.473Z,1.83
2018-09-09T08:03:46.931Z,1.83
2018-09-09T08:06:15.336Z,1.73
2018-09-09T08:08:43.747Z,2.10
2018-09-09T08:11:12.142Z,1.70
2018-09-09T08:13:40.480Z,1.70
2018-09-09T08:16:08.899Z,2.10
2018-09-09T08:18:37.235Z,1.73
2018-09-09T08:21:05.616Z,1.57
2018-09-09T08:23:34.606Z,1.13
2018-09-09T08:26:02.903Z,1.70
2018-09-09T08:28:31.861Z,1.93
2018-09-09T08:31:00.238Z,1.27
2018-09-09T08:33:28.559Z,1.77
2018-09-09T08:35:56.870Z,2.23
2018-09-09T08:38:25.203Z,2.10
2018-09-09T08:40:53.517Z,2.10
2018-09-09T08:43:21.865Z,1.17
2018-09-09T08:45:50.282Z,1.40
2018-09-09T08:48:18.606Z,1.70
2018-09-09T08:50:46.921Z,1.73
2018-09-09T08:53:15.240Z,1.90
2018-09-09T08:55:43.553Z,1.53
2018-09-09T08:58:12.541Z,1.83
2018-09-09T09:00:40.890Z,1.20
2018-09-09T09:03:09.867Z,1.10
2018-09-09T09:05:38.941Z,1.23
2018-09-09T09:08:07.283Z,1.30
2018-09-09T09:10:36.272Z,1.63
2018-09-09T09:13:04.616Z,1.40
2018-09-09T09:15:32.961Z,1.53
2018-09-09T09:18:01.264Z,1.13
2018-09-09T09:20:29.633Z,0.97
2018-09-09T09:22:57.933Z,1.47
2018-09-09T09:25:26.225Z,1.10
2018-09-09T09:27:54.590Z,1.23
2018-09-09T09:30:22.934Z,1.40
2018-09-09T09:32:51.365Z,1.13
2018-09-09T09:35:20.453Z,1.27
2018-09-09T09:37:48.813Z,1.40
2018-09-09T09:40:17.128Z,1.40
2018-09-09T09:42:45.435Z,1.30
2018-09-09T09:45:13.760Z,1.33
2018-09-09T09:47:42.075Z,1.23
2018-09-09T09:50:10.469Z,1.37
2018-09-09T09:52:38.825Z,1.40
2018-09-09T09:55:07.209Z,1.33
2018-09-09T09:57:35.553Z,1.47
2018-09-09T10:00:03.941Z,1.20
2018-09-09T10:02:32.285Z,1.60
2018-09-09T10:05:00.602Z,1.57
2018-09-09T10:07:28.916Z,1.00
2018-09-09T10:09:57.249Z,1.10
2018-09-09T10:12:25.590Z,1.00
2018-09-09T10:14:54.141Z,1.10
2018-09-09T10:17:23.212Z,1.20
2018-09-09T10:19:56.769Z,1.20
2018-09-09T10:22:25.097Z,1.90
2018-09-09T10:24:53.501Z,2.33
2018-09-09T10:27:22.309Z,1.23
2018-09-09T10:29:50.620Z,1.37
2018-09-09T10:32:19.041Z,1.80
2018-09-09T10:34:47.377Z,1.93
2018-09-09T10:37:15.723Z,1.23
2018-09-09T10:39:44.056Z,1.30
2018-09-09T10:42:12.464Z,1.93
2018-09-09T10:44:40.841Z,1.43
2018-09-09T10:47:09.208Z,1.00
2018-09-09T10:49:37.883Z,1.57
2018-09-09T10:52:06.293Z,1.70
2018-09-09T10:54:34.664Z,1.70
2018-09-09T10:57:03.227Z,1.83
2018-09-09T10:59:41.205Z,1.03
2018-09-09T11:02:09.902Z,2.03
2018-09-09T11:04:38.237Z,1.20
2018-09-09T11:07:07.880Z,1.30
2018-09-09T11:09:37.708Z,1.90
2018-09-09T11:12:27.923Z,1.40
2018-09-09T11:14:58.012Z,1.53
2018-09-09T11:17:26.703Z,1.20
2018-09-09T11:19:56.513Z,1.60
2018-09-09T11:22:31.427Z,0.90
2018-09-09T11:24:59.780Z,1.60
2018-09-09T11:27:28.102Z,1.30
2018-09-09T11:29:56.426Z,1.40
2018-09-09T11:32:24.888Z,1.50
2018-09-09T11:35:01.446Z,1.43
2018-09-09T11:37:29.786Z,1.50
2018-09-09T11:39:58.112Z,1.50
2018-09-09T11:42:28.725Z,1.43
2018-09-09T11:44:57.461Z,1.10
2018-09-09T11:47:26.763Z,2.00
2018-09-09T11:49:55.135Z,1.10
2018-09-09T11:52:24.565Z,1.43
2018-09-09T11:54:53.154Z,1.30
2018-09-09T11:57:21.543Z,1.67
2018-09-09T11:59:50.393Z,1.40
2018-09-09T12:02:18.696Z,1.37
2018-09-09T12:04:47.928Z,1.27
2018-09-09T12:07:16.875Z,1.40
2018-09-09T12:09:45.198Z,1.00
2018-09-09T12:12:13.517Z,1.47
2018-09-09T12:14:41.933Z,1.70
2018-09-09T12:17:10.269Z,1.10
2018-09-09T12:19:38.610Z,1.20
2018-09-09T12:22:06.945Z,1.30
2018-09-09T12:24:35.241Z,1.20
2018-09-09T12:27:03.550Z,1.00
2018-09-09T12:29:32.032Z,1.10
2018-09-09T12:32:00.365Z,1.23
2018-09-09T12:34:28.689Z,1.00
2018-09-09T12:36:56.984Z,0.97
2018-09-09T12:39:25.309Z,1.10
2018-09-09T12:41:53.625Z,1.10
2018-09-09T12:44:27.163Z,1.40
2018-09-09T12:47:00.735Z,1.20
2018-09-09T12:49:29.114Z,1.47
2018-09-09T12:51:57.436Z,1.20
2018-09-09T12:54:25.764Z,1.10
2018-09-09T12:56:54.093Z,1.00
2018-09-09T12:59:22.450Z,1.00
2018-09-09T13:01:50.768Z,1.30
2018-09-09T13:04:19.080Z,1.70
2018-09-09T13:06:47.398Z,1.70
2018-09-09T13:09:15.752Z,1.30
2018-09-09T13:11:44.149Z,1.20
2018-09-09T13:14:12.457Z,1.20
2018-09-09T13:16:49.776Z,1.43
2018-09-09T13:19:18.335Z,1.10
2018-09-09T13:21:46.689Z,0.90
2018-09-09T13:24:15.185Z,1.17
2018-09-09T13:26:43.505Z,1.00
2018-09-09T13:29:12.438Z,0.80
2018-09-09T13:31:40.801Z,1.00
2018-09-09T13:34:09.126Z,1.00
2018-09-09T13:36:37.436Z,0.90
2018-09-09T13:39:12.813Z,0.80
2018-09-09T13:41:41.429Z,1.27
2018-09-09T13:44:09.785Z,1.10
2018-09-09T13:46:38.709Z,1.00
2018-09-09T13:49:07.081Z,0.93
2018-09-09T13:51:35.417Z,1.23
2018-09-09T13:54:03.746Z,1.20
2018-09-09T13:56:32.077Z,1.10
2018-09-09T13:59:00.406Z,0.90
2018-09-09T14:01:29.297Z,1.60
2018-09-09T14:03:57.702Z,1.00
2018-09-09T14:06:25.928Z,1.10
2018-09-09T14:08:54.225Z,1.00
2018-09-09T14:11:22.598Z,1.03
2018-09-09T14:13:57.385Z,1.10
2018-09-09T14:16:28.841Z,0.90
2018-09-09T14:18:57.158Z,1.00
2018-09-09T14:21:25.489Z,1.53
2018-09-09T14:23:54.413Z,2.67
2018-09-09T14:26:23.569Z,2.70
2018-09-09T14:28:52.057Z,6.53
2018-09-09T14:31:20.390Z,7.97
2018-09-09T14:33:49.091Z,1.30
2018-09-09T14:36:17.440Z,1.27
2018-09-09T14:38:45.749Z,1.60
2018-09-09T14:41:14.097Z,1.60
2018-09-09T14:43:42.425Z,1.80
2018-09-09T14:46:10.932Z,1.40
2018-09-09T14:48:39.118Z,1.00
2018-09-09T14:51:14.970Z,1.27
2018-09-09T14:53:43.347Z,1.20
2018-09-09T14:56:11.851Z,0.97
2018-09-09T14:58:40.261Z,1.03
2018-09-09T15:01:08.580Z,0.90
2018-09-09T15:03:36.913Z,0.93
2018-09-09T15:06:05.585Z,0.97
2018-09-09T15:08:33.962Z,1.40
2018-09-09T15:11:02.553Z,1.20
2018-09-09T15:13:32.304Z,1.10
2018-09-09T15:16:02.598Z,1.17
2018-09-09T15:18:30.968Z,1.00
2018-09-09T15:21:06.288Z,0.87
2018-09-09T15:23:34.629Z,1.13
2018-09-09T15:26:04.186Z,1.00
2018-09-09T15:28:33.048Z,0.77
2018-09-09T15:31:02.523Z,0.80
2018-09-09T15:33:30.913Z,3.63
2018-09-09T15:35:59.323Z,3.03
2018-09-09T15:38:27.790Z,2.50
2018-09-09T15:40:56.139Z,1.10
2018-09-09T15:43:24.524Z,1.20
2018-09-09T15:45:55.106Z,1.10
2018-09-09T15:48:23.406Z,1.20
2018-09-09T15:50:52.053Z,1.03
2018-09-09T15:53:21.158Z,1.20
2018-09-09T15:55:49.516Z,1.30
2018-09-09T15:58:17.849Z,1.30
2018-09-09T16:00:46.176Z,1.10
2018-09-09T16:03:15.799Z,0.97
2018-09-09T16:05:44.282Z,1.20
2018-09-09T16:08:12.589Z,0.80
2018-09-09T16:10:41.222Z,1.10
2018-09-09T16:13:09.693Z,0.83
2018-09-09T16:15:44.750Z,1.10
2018-09-09T16:18:13.137Z,0.90
2018-09-09T16:20:41.457Z,1.17
2018-09-09T16:23:13.860Z,1.00
2018-09-09T16:25:46.224Z,0.97
2018-09-09T16:28:15.808Z,1.20
2018-09-09T16:30:45.329Z,1.10
2018-09-09T16:33:13.668Z,1.30
2018-09-09T16:35:43.158Z,1.00
2018-09-09T16:38:11.658Z,1.73
2018-09-09T16:40:40.829Z,1.60
2018-09-09T16:43:09.188Z,1.70
2018-09-09T16:45:37.557Z,1.43
2018-09-09T16:48:05.927Z,1.03
2018-09-09T16:50:35.617Z,1.40
2018-09-09T16:53:04.008Z,1.17
2018-09-09T16:55:32.338Z,1.73
2018-09-09T16:58:02.202Z,1.90
2018-09-09T17:00:30.508Z,1.07
2018-09-09T17:02:58.900Z,1.00
2018-09-09T17:05:27.295Z,1.10
2018-09-09T17:07:55.625Z,0.80
2018-09-09T17:10:23.956Z,1.40
2018-09-09T17:12:52.367Z,1.57
2018-09-09T17:15:20.702Z,1.30
2018-09-09T17:17:49.111Z,1.17
2018-09-09T17:20:18.031Z,1.17
2018-09-09T17:22:46.431Z,1.17
2018-09-09T17:25:14.746Z,0.80
2018-09-09T17:27:43.094Z,1.10
2018-09-09T17:30:11.427Z,1.23
2018-09-09T17:32:39.736Z,1.03
2018-09-09T17:35:08.093Z,1.40
2018-09-09T17:37:36.440Z,1.20
2018-09-09T17:40:04.820Z,0.97
2018-09-09T17:42:33.256Z,1.50
2018-09-09T17:45:01.535Z,1.50
2018-09-09T17:47:29.886Z,1.50
2018-09-09T17:49:58.189Z,1.40
2018-09-09T17:52:26.574Z,1.57
2018-09-09T17:54:54.895Z,2.23
2018-09-09T17:57:23.244Z,2.17
2018-09-09T17:59:52.261Z,3.50
2018-09-09T18:02:20.589Z,2.73
2018-09-09T18:04:48.912Z,1.70
2018-09-09T18:07:17.249Z,1.10
2018-09-09T18:09:46.091Z,1.00
2018-09-09T18:12:14.405Z,1.07
2018-09-09T18:14:42.792Z,2.00
2018-09-09T18:17:11.128Z,2.47
2018-09-09T18:19:39.461Z,1.90
2018-09-09T18:22:07.759Z,2.20
2018-09-09T18:24:36.072Z,1.73
2018-09-09T18:27:04.412Z,2.20
2018-09-09T18:29:32.773Z,1.70
2018-09-09T18:32:01.117Z,2.47
2018-09-09T18:34:29.425Z,2.07
2018-09-09T18:36:57.790Z,1.83
2018-09-09T18:39:26.116Z,2.00
2018-09-09T18:41:54.435Z,2.23
2018-09-09T18:44:22.750Z,2.53
2018-09-09T18:46:51.095Z,1.80
2018-09-09T18:49:19.475Z,2.13
2018-09-09T18:51:47.764Z,1.90
2018-09-09T18:54:16.085Z,1.40
2018-09-09T18:56:44.443Z,1.90
2018-09-09T18:59:17.425Z,1.83
2018-09-09T19:01:45.828Z,1.80
2018-09-09T19:04:14.124Z,1.67
2018-09-09T19:06:42.641Z,1.97
2018-09-09T19:09:11.344Z,2.73
2018-09-09T19:11:43.021Z,2.10
2018-09-09T19:14:11.550Z,2.33
2018-09-09T19:16:49.802Z,2.17
2018-09-09T19:19:18.131Z,2.47
2018-09-09T19:21:49.412Z,1.73
2018-09-09T19:24:18.958Z,1.63
2018-09-09T19:26:47.385Z,1.90
2018-09-09T19:29:16.240Z,1.77
2018-09-09T19:31:44.605Z,1.50
2018-09-09T19:34:14.453Z,2.30
2018-09-09T19:36:42.909Z,2.60
2018-09-09T19:39:12.443Z,2.73
2018-09-09T19:41:41.016Z,5.90
2018-09-09T19:44:14.361Z,3.00
2018-09-09T19:46:42.776Z,3.53
2018-09-09T19:49:11.936Z,2.63
2018-09-09T19:51:40.757Z,3.13
2018-09-09T19:54:12.972Z,2.83
2018-09-09T19:56:44.654Z,2.80
2018-09-09T19:59:13.837Z,3.10
2018-09-09T20:01:42.372Z,2.30
2018-09-09T20:04:10.774Z,2.20
2018-09-09T20:06:39.441Z,2.23
2018-09-09T20:09:08.501Z,2.30
2018-09-09T20:11:37.361Z,1.40
2018-09-09T20:14:06.155Z,2.03
2018-09-09T20:16:37.434Z,1.60
2018-09-09T20:19:06.529Z,1.30
2018-09-09T20:21:36.099Z,1.40
2018-09-09T20:24:04.481Z,2.20
2018-09-09T20:26:35.613Z,1.80
2018-09-09T20:29:05.678Z,1.20
2018-09-09T20:31:34.338Z,1.63
2018-09-09T20:34:04.071Z,1.50
2018-09-09T20:36:32.723Z,1.73
2018-09-09T20:39:01.542Z,2.03
2018-09-09T20:41:30.269Z,1.97
2018-09-09T20:43:58.734Z,2.47
2018-09-09T20:46:27.595Z,1.43
2018-09-09T20:49:04.970Z,2.10
2018-09-09T20:51:38.139Z,2.10
2018-09-09T20:54:09.785Z,1.97
2018-09-09T20:56:38.380Z,3.93
2018-09-09T20:59:07.209Z,2.43
2018-09-09T21:01:35.504Z,2.00
2018-09-09T21:04:04.208Z,2.40
2018-09-09T21:06:33.864Z,3.60
2018-09-09T21:09:02.519Z,2.40
2018-09-09T21:11:31.357Z,2.37
2018-09-09T21:13:59.746Z,2.70
2018-09-09T21:16:28.073Z,2.77
2018-09-09T21:18:56.701Z,3.00
2018-09-09T21:21:25.495Z,2.57
2018-09-09T21:23:54.089Z,2.70
2018-09-09T21:26:22.691Z,2.47
2018-09-09T21:28:50.985Z,2.53
2018-09-09T21:31:19.574Z,2.63
2018-09-09T21:33:48.009Z,2.50
2018-09-09T21:36:16.333Z,2.43
2018-09-09T21:38:44.643Z,1.80
2018-09-09T21:41:12.987Z,2.53
2018-09-09T21:43:41.469Z,1.97
2018-09-09T21:46:09.821Z,2.10
2018-09-09T21:48:38.128Z,2.03
2018-09-09T21:51:06.452Z,2.00
2018-09-09T21:53:34.754Z,2.67
2018-09-09T21:56:03.105Z,2.43
2018-09-09T21:58:31.423Z,2.60
2018-09-09T22:01:05.089Z,2.90
2018-09-09T22:03:33.444Z,2.60
2018-09-09T22:06:01.777Z,2.50
2018-09-09T22:08:30.097Z,2.70
2018-09-09T22:10:58.395Z,2.47
2018-09-09T22:13:26.774Z,2.30
2018-09-09T22:15:55.072Z,2.73
2018-09-09T22:18:23.391Z,2.30
2018-09-09T22:20:51.689Z,2.47
2018-09-09T22:23:20.001Z,3.10
2018-09-09T22:25:48.306Z,2.50
2018-09-09T22:28:16.653Z,2.50
2018-09-09T22:33:16.904Z,2.33
2018-09-09T22:35:47.339Z,2.70
2018-09-09T22:38:15.659Z,2.47
2018-09-09T22:40:43.980Z,1.87
2018-09-09T22:43:12.308Z,2.60
2018-09-09T22:45:41.463Z,2.10
2018-09-09T22:48:10.616Z,2.00
2018-09-09T22:50:39.006Z,2.60
2018-09-09T22:53:07.366Z,2.20
2018-09-09T22:55:35.689Z,2.07
2018-09-09T22:58:03.984Z,2.40
2018-09-09T23:00:32.305Z,2.60
2018-09-09T23:03:00.700Z,2.40
2018-09-09T23:05:29.167Z,1.73
2018-09-09T23:07:57.439Z,1.93
2018-09-09T23:10:25.815Z,1.80
2018-09-09T23:12:54.196Z,1.73
2018-09-09T23:15:26.994Z,1.90
2018-09-09T23:17:55.596Z,2.57
2018-09-09T23:20:23.985Z,1.50
2018-09-09T23:22:53.141Z,2.20
2018-09-09T23:25:21.945Z,2.20
2018-09-09T23:27:50.940Z,2.00
2018-09-09T23:30:19.254Z,1.97
2018-09-09T23:32:47.781Z,2.10
2018-09-09T23:35:16.089Z,1.87
2018-09-09T23:37:44.585Z,1.90
2018-09-09T23:40:12.909Z,2.37
2018-09-09T23:42:41.224Z,2.13
2018-09-09T23:45:09.567Z,2.27
2018-09-09T23:47:37.899Z,2.10
2018-09-09T23:50:06.488Z,2.20
2018-09-09T23:52:34.797Z,2.70
2018-09-09T23:55:03.148Z,2.07
2018-09-09T23:57:31.480Z,2.50
2018-09-09T23:59:59.802Z,2.73
